Time;durP1;ratioP1;P1;durP2;ratioP2;P2;SDS_P1;SDS_P2;PMS_P1;PMS_P2;Temp;Humidity;BMP_temperature;BMP_pressure;BME280_temperature;BME280_humidity;BME280_pressure;Samples;Min_cycle;Max_cycle;Signal;HPM_P1;HPM_P2
2023/03/23 00:04:43;;;;;;;30.30;16.00;;;;;;;11.89;100.00;100328.78;31168240;28;20507;-74
2023/03/23 00:19:51;;;;;;;38.13;18.67;;;;;;;11.65;100.00;100330.03;31170634;28;20142;-73
2023/03/23 00:34:52;;;;;;;45.07;21.10;;;;;;;11.36;100.00;100326.34;31179775;28;20064;-75
2023/03/23 00:49:55;;;;;;;50.30;21.97;;;;;;;10.99;100.00;100317.31;31155588;28;20045;-73
2023/03/23 01:04:56;;;;;;;43.93;17.13;;;;;;;11.21;100.00;100313.03;31189737;28;20491;-74
2023/03/23 01:19:57;;;;;;;25.13;11.33;;;;;;;11.40;100.00;100310.72;31193996;28;20440;-74
2023/03/23 01:34:58;;;;;;;28.43;14.77;;;;;;;11.12;100.00;100303.88;31178498;28;20046;-73
2023/03/23 01:49:59;;;;;;;39.47;17.57;;;;;;;11.01;100.00;100312.25;31192244;28;20510;-72
2023/03/23 02:05:07;;;;;;;31.80;15.37;;;;;;;10.83;100.00;100325.38;31205420;28;20052;-74
2023/03/23 02:20:33;;;;;;;34.03;16.23;;;;;;;10.69;100.00;100314.75;31197672;28;20067;-73
2023/03/23 02:35:54;;;;;;;36.47;18.10;;;;;;;10.45;100.00;100325.59;31177730;28;20119;-73
2023/03/23 02:50:56;;;;;;;38.80;18.50;;;;;;;10.44;100.00;100328.72;31191700;28;20046;-72
2023/03/23 03:06:48;;;;;;;37.03;17.47;;;;;;;10.41;100.00;100327.59;31210693;28;20096;-73
2023/03/23 03:21:50;;;;;;;41.07;18.20;;;;;;;10.37;100.00;100331.56;30968636;28;20179;-74
2023/03/23 03:36:55;;;;;;;37.47;18.37;;;;;;;10.71;100.00;100323.25;31156263;28;20042;-72
2023/03/23 03:51:55;;;;;;;49.37;23.80;;;;;;;10.84;100.00;100327.69;31183505;28;20060;-74
2023/03/23 04:06:57;;;;;;;36.83;18.60;;;;;;;10.79;100.00;100325.44;31177919;28;20045;-73
2023/03/23 04:21:58;;;;;;;41.43;17.77;;;;;;;10.74;100.00;100334.03;31170604;28;20195;-74
2023/03/23 04:36:59;;;;;;;44.00;19.13;;;;;;;10.75;100.00;100351.09;31181412;28;20048;-75
2023/03/23 04:52:00;;;;;;;36.87;18.97;;;;;;;10.76;100.00;100349.94;31155806;28;20069;-73
2023/03/23 05:07:00;;;;;;;40.70;18.73;;;;;;;10.89;100.00;100367.16;31174669;28;20498;-74
2023/03/23 05:22:02;;;;;;;37.63;17.87;;;;;;;10.97;100.00;100378.69;31168804;28;20048;-78
2023/03/23 05:37:03;;;;;;;41.57;18.73;;;;;;;11.19;100.00;100367.03;31173792;28;20121;-77
2023/03/23 05:52:04;;;;;;;39.23;17.57;;;;;;;11.51;100.00;100373.81;31162880;28;20084;-77
2023/03/23 06:07:05;;;;;;;32.67;17.20;;;;;;;12.71;100.00;100386.06;31149878;28;20515;-77
2023/03/23 06:22:06;;;;;;;45.67;20.77;;;;;;;14.35;100.00;100394.09;31162980;28;20065;-78
2023/03/23 06:37:07;;;;;;;47.53;21.43;;;;;;;14.78;100.00;100390.03;31178628;28;20041;-79
2023/03/23 06:52:07;;;;;;;45.27;21.03;;;;;;;15.96;100.00;100404.72;31206487;28;20049;-78
2023/03/23 07:07:12;;;;;;;39.50;20.87;;;;;;;17.00;100.00;100396.00;31187293;28;20046;-78
2023/03/23 07:22:13;;;;;;;48.97;25.10;;;;;;;18.40;87.36;100395.66;31192239;28;20042;-72
2023/03/23 07:37:13;;;;;;;38.30;20.90;;;;;;;19.47;77.36;100395.13;31216591;28;20054;-79
2023/03/23 07:52:14;;;;;;;54.03;22.75;;;;;;;20.54;70.52;100390.97;31216457;28;20091;-78
2023/03/23 08:07:16;;;;;;;37.65;18.23;;;;;;;21.98;60.68;100391.09;31138602;28;20132;-76
2023/03/23 08:22:19;;;;;;;36.07;18.10;;;;;;;21.70;57.80;100396.41;31191242;28;20071;-76
2023/03/23 08:37:19;;;;;;;35.70;15.82;;;;;;;22.25;54.59;100380.78;31193675;28;20229;-79
2023/03/23 08:52:20;;;;;;;35.25;14.63;;;;;;;23.98;46.80;100368.34;31172094;28;20061;-77
2023/03/23 09:07:22;;;;;;;24.77;12.98;;;;;;;24.53;45.00;100360.47;31169952;28;20484;-80
2023/03/23 09:22:23;;;;;;;25.77;14.50;;;;;;;24.13;44.38;100346.63;31206732;28;20101;-79
2023/03/23 09:37:24;;;;;;;28.42;13.85;;;;;;;24.96;42.78;100338.63;31193760;28;20121;-75
2023/03/23 09:52:43;;;;;;;24.08;12.25;;;;;;;25.81;40.55;100329.25;31183374;28;20092;-78
2023/03/23 10:07:44;;;;;;;21.65;10.90;;;;;;;26.02;39.92;100327.53;31188505;28;20073;-80
2023/03/23 10:23:14;;;;;;;18.13;9.85;;;;;;;26.31;38.08;100311.34;31209702;28;20049;-78
2023/03/23 10:38:20;;;;;;;19.60;9.35;;;;;;;25.22;38.79;100291.78;31170049;28;20593;-80
2023/03/23 10:53:34;;;;;;;23.60;9.35;;;;;;;23.83;41.25;100279.16;31194662;28;20515;-77
2023/03/23 11:08:47;;;;;;;20.80;8.50;;;;;;;23.38;42.61;100270.81;31169626;28;20454;-78
2023/03/23 11:23:53;;;;;;;15.87;7.23;;;;;;;23.52;42.26;100251.66;31201866;28;20050;-77
2023/03/23 11:38:57;;;;;;;14.48;7.43;;;;;;;23.04;42.80;100234.00;31180509;28;20329;-78
2023/03/23 11:54:17;;;;;;;12.95;6.80;;;;;;;22.50;42.33;100216.72;31181421;28;20054;-76
2023/03/23 12:09:27;;;;;;;12.27;6.97;;;;;;;21.56;46.03;100220.47;31187882;28;20056;-75
2023/03/23 12:24:29;;;;;;;15.30;8.00;;;;;;;21.25;46.91;100212.22;31173521;28;20126;-75
2023/03/23 12:39:35;;;;;;;17.52;7.00;;;;;;;20.89;48.56;100188.75;31160113;28;20391;-74
2023/03/23 12:54:45;;;;;;;19.42;8.38;;;;;;;20.75;49.34;100199.41;31154752;28;20049;-73
2023/03/23 13:10:01;;;;;;;15.00;9.85;;;;;;;20.80;48.27;100191.66;31170926;28;20057;-72
2023/03/23 13:25:09;;;;;;;19.25;9.93;;;;;;;20.83;48.29;100179.66;31190622;28;20050;-73
2023/03/23 13:40:11;;;;;;;24.73;12.77;;;;;;;20.58;49.78;100181.16;31172192;28;20046;-74
2023/03/23 13:55:15;;;;;;;99.70;41.50;;;;;;;20.46;51.37;100174.78;31194396;28;20511;-74
2023/03/23 14:10:18;;;;;;;32.92;12.52;;;;;;;20.29;54.36;100166.28;31189957;28;20475;-79
2023/03/23 14:25:20;;;;;;;23.27;12.27;;;;;;;20.15;58.30;100160.84;31210853;28;20459;-74
2023/03/23 14:40:21;;;;;;;25.83;12.05;;;;;;;20.03;57.48;100166.22;31173885;28;20041;-82
2023/03/23 14:55:22;;;;;;;27.17;12.90;;;;;;;19.93;59.33;100167.59;31199175;28;20057;-80
2023/03/23 15:10:24;;;;;;;36.50;15.20;;;;;;;19.94;58.82;100184.88;31210276;28;20511;-79
2023/03/23 15:25:32;;;;;;;26.58;13.27;;;;;;;19.76;57.72;100185.88;31209591;28;20132;-77
2023/03/23 15:40:38;;;;;;;42.00;18.33;;;;;;;19.61;59.57;100190.66;31177348;28;20084;-81
2023/03/23 15:55:39;;;;;;;34.60;13.68;;;;;;;19.37;60.66;100191.50;31189834;28;20115;-80
2023/03/23 16:10:40;;;;;;;33.95;17.38;;;;;;;19.22;62.39;100192.78;31170680;28;20053;-80
2023/03/23 16:25:44;;;;;;;;;;;;;;;19.06;61.15;100197.53;31203749;28;20145;-80
2023/03/23 16:40:46;;;;;;;32.33;13.98;;;;;;;18.86;63.72;100207.66;31191711;28;19946;-80
2023/03/23 16:55:51;;;;;;;29.08;14.23;;;;;;;18.45;66.64;100221.09;31184029;28;20050;-75
2023/03/23 17:10:53;;;;;;;;;;;;;;;17.83;79.91;100227.25;31207178;28;20100;-81
2023/03/23 17:25:55;;;;;;;35.90;16.97;;;;;;;17.47;80.29;100235.63;31272289;28;20047;-84
2023/03/23 17:40:59;;;;;;;30.50;15.77;;;;;;;17.21;85.41;100246.97;31210026;28;20056;-75
2023/03/23 17:56:02;;;;;;;33.77;16.33;;;;;;;17.13;89.58;100251.22;31213766;28;20058;-74
2023/03/23 18:11:23;;;;;;;29.23;16.00;;;;;;;17.14;93.46;100250.00;31199560;28;20061;-83
2023/03/23 18:26:26;;;;;;;33.33;15.10;;;;;;;17.16;93.70;100266.00;31229079;28;20054;-77
2023/03/23 18:41:28;;;;;;;27.40;13.77;;;;;;;17.14;96.03;100260.97;31187583;28;20066;-78
2023/03/23 18:56:30;;;;;;;32.13;15.87;;;;;;;17.20;95.58;100258.38;31225981;28;20065;-77
2023/03/23 19:11:32;;;;;;;28.60;12.90;;;;;;;17.17;95.08;100254.56;31243994;28;20554;-77
2023/03/23 19:26:40;;;;;;;25.27;11.60;;;;;;;17.26;93.04;100246.31;31176722;28;20061;-77
2023/03/23 19:41:43;;;;;;;25.37;13.03;;;;;;;17.26;91.42;100246.31;31216081;28;20115;-78
2023/03/23 19:56:46;;;;;;;28.50;12.53;;;;;;;17.33;90.93;100250.72;31210806;28;20087;-75
2023/03/23 20:11:48;;;;;;;27.50;12.07;;;;;;;17.20;89.94;100237.22;31177002;28;20041;-76
2023/03/23 20:26:51;;;;;;;35.37;16.23;;;;;;;17.23;92.76;100247.25;31204480;28;20052;-76
2023/03/23 20:41:53;;;;;;;35.53;17.27;;;;;;;17.19;92.90;100230.19;31168853;28;20054;-76
2023/03/23 20:56:57;;;;;;;27.97;12.07;;;;;;;17.01;93.20;100232.94;31176310;28;20058;-75
2023/03/23 21:11:59;;;;;;;24.03;13.20;;;;;;;16.63;96.40;100234.19;31253203;28;20045;-78
2023/03/23 21:27:01;;;;;;;28.73;12.23;;;;;;;16.31;99.96;100232.00;31235160;28;20119;-81
2023/03/23 21:42:12;;;;;;;28.03;12.87;;;;;;;16.06;100.00;100224.03;31212475;28;20058;-82
2023/03/23 21:57:14;;;;;;;31.90;14.23;;;;;;;15.89;100.00;100220.78;31243593;28;20058;-79
2023/03/23 22:12:17;;;;;;;35.67;17.33;;;;;;;15.52;100.00;100222.59;31189220;28;20053;-80
2023/03/23 22:27:19;;;;;;;33.73;16.57;;;;;;;15.42;100.00;100218.28;31209101;28;20061;-80
2023/03/23 22:42:21;;;;;;;29.57;16.70;;;;;;;15.12;100.00;100220.53;31209749;28;20080;-79
2023/03/23 22:57:23;;;;;;;29.57;14.87;;;;;;;15.09;100.00;100205.03;31206365;28;20046;-79
2023/03/23 23:12:30;;;;;;;33.17;15.03;;;;;;;14.92;100.00;100211.91;31257943;28;20499;-77
2023/03/23 23:27:33;;;;;;;26.90;13.50;;;;;;;14.74;100.00;100228.94;31216998;28;20095;-76
2023/03/23 23:42:35;;;;;;;33.57;18.70;;;;;;;14.63;100.00;100207.44;31161959;28;20045;-78
2023/03/23 23:57:37;;;;;;;27.40;14.53;;;;;;;14.62;100.00;100200.47;31190157;28;20096;-79
